Tiller, Oregon
Current Conditions -  °F | °C
As of 8:53 PM on Thursday 30 Oct 2014 (Local Time) from KRBG Reporting Station
Haze Haze  
Wind Chill: 59°   Ceiling: 11000
Heat Index: 59°   Visibility: 4mi
Dew Point: 56°   Wind: 0mph
Humidity: 90%   Direction: NA
Pressure: 29.8"   Gusts: NA
Location:  42.93°N, 122.95°W
Report Text: KRBG 310353Z AUTO 00000KT 4SM BR FEW036 SCT043 OVC110 15/13 A2980 RMK AO2 RAE0254 SLP092 P0000 T01500133
Loading
Personal Weather Stations






























Interactive Weather Map
Tropical Storm Tracking
New forecast layout! Learn more

10-Day Weather Forecast

Advertisements
Track Severe Weather on mobile